Time;durP1;ratioP1;P1;durP2;ratioP2;P2;SDS_P1;SDS_P2;PMS_P1;PMS_P2;Temp;Humidity;BMP_temperature;BMP_pressure;BME280_temperature;BME280_humidity;BME280_pressure;Samples;Min_cycle;Max_cycle;Signal;HPM_P1;HPM_P2
2021/12/18 00:02:03;;;;;;;23.10;10.45;;;153.70;2252.80;;;;;;5012757;28;20044;-59
2021/12/18 00:04:28;;;;;;;19.52;13.07;;;153.70;2252.80;;;;;;5012789;28;20967;-59
2021/12/18 00:06:55;;;;;;;21.90;14.55;;;153.80;2252.80;;;;;;5012423;28;20520;-59
2021/12/18 00:09:21;;;;;;;23.25;10.88;;;153.80;2252.80;;;;;;5011762;28;20053;-59
2021/12/18 00:11:48;;;;;;;25.30;13.60;;;153.60;2252.80;;;;;;5011247;28;20113;-59
2021/12/18 00:14:15;;;;;;;22.58;12.38;;;153.70;2252.80;;;;;;5011839;28;20089;-58
2021/12/18 00:16:41;;;;;;;18.80;10.88;;;153.70;2252.80;;;;;;5011806;28;20025;-59
2021/12/18 00:19:07;;;;;;;27.33;14.43;;;153.90;2252.80;;;;;;5011933;28;20466;-59
2021/12/18 00:21:36;;;;;;;27.75;15.23;;;153.70;2252.80;;;;;;5011408;28;20060;-58
2021/12/18 00:24:04;;;;;;;25.15;14.60;;;153.80;2252.80;;;;;;5011522;28;20026;-58
2021/12/18 00:26:30;;;;;;;27.42;18.00;;;153.70;2252.80;;;;;;5011426;28;20034;-59
2021/12/18 00:28:55;;;;;;;32.78;18.10;;;153.60;2252.80;;;;;;5011741;28;20380;-60
2021/12/18 00:31:21;;;;;;;27.13;17.35;;;128.80;2252.80;;;;;;5011318;28;20076;-59
2021/12/18 00:33:47;;;;;;;30.98;18.85;;;128.90;2252.80;;;;;;5011293;28;20053;-59
2021/12/18 00:36:13;;;;;;;20.08;13.48;;;128.80;2252.80;;;;;;5011289;28;20030;-59
2021/12/18 00:38:40;;;;;;;25.00;13.23;;;128.70;2252.80;;;;;;5011477;28;20030;-59
2021/12/18 00:43:36;;;;;;;26.42;15.32;;;128.70;2252.80;;;;;;5011412;28;20029;-59
2021/12/18 00:46:02;;;;;;;20.17;12.93;;;128.70;2252.80;;;;;;5011255;28;20029;-59
2021/12/18 00:48:28;;;;;;;20.90;12.73;;;128.70;2252.80;;;;;;5011509;28;20032;-59
2021/12/18 00:50:54;;;;;;;22.45;12.70;;;128.60;2252.80;;;;;;5011369;28;20033;-58
2021/12/18 00:53:20;;;;;;;22.92;13.38;;;128.50;2252.80;;;;;;5010982;28;20034;-59
2021/12/18 00:55:46;;;;;;;27.20;16.55;;;128.70;2252.80;;;;;;5011216;28;20026;-59
2021/12/18 00:58:13;;;;;;;22.83;13.77;;;128.60;2252.80;;;;;;5010841;28;20480;-59
2021/12/18 01:00:41;;;;;;;23.70;14.43;;;128.50;2252.80;;;;;;5011112;28;20034;-58
2021/12/18 01:03:15;;;;;;;29.63;15.77;;;128.40;2252.80;;;;;;5010813;28;20029;-57
2021/12/18 01:05:42;;;;;;;23.02;13.75;;;128.30;2252.80;;;;;;5010840;28;20045;-58
2021/12/18 01:08:08;;;;;;;19.45;12.00;;;128.50;2252.80;;;;;;5010982;28;20112;-59
2021/12/18 01:13:23;;;;;;;25.25;13.52;;;128.40;2252.80;;;;;;5011306;28;20452;-58
2021/12/18 01:15:54;;;;;;;29.45;17.75;;;128.40;2252.80;;;;;;5010880;28;20022;-58
2021/12/18 01:23:48;;;;;;;30.23;16.38;;;128.20;2252.80;;;;;;5010737;28;20580;-58
2021/12/18 01:26:14;;;;;;;32.83;20.05;;;128.20;2252.80;;;;;;5010780;28;20046;-59
2021/12/18 01:28:41;;;;;;;34.55;18.85;;;128.20;2252.80;;;;;;5010443;28;20025;-59
2021/12/18 01:31:09;;;;;;;77.35;37.60;;;128.30;2252.80;;;;;;5010572;28;20057;-58
2021/12/18 01:33:35;;;;;;;50.88;22.75;;;128.30;2252.80;;;;;;5010339;28;20057;-58
2021/12/18 01:36:01;;;;;;;76.50;37.08;;;128.20;2252.80;;;;;;5010215;28;20061;-59
2021/12/18 01:38:29;;;;;;;110.13;46.33;;;128.20;2252.80;;;;;;5010859;28;20156;-59
2021/12/18 01:40:56;;;;;;;67.47;31.92;;;128.30;2252.80;;;;;;5010441;28;20034;-59
2021/12/18 01:53:42;;;;;;;125.47;51.90;;;128.00;2252.80;;;;;;5010402;28;20053;-60
2021/12/18 01:56:09;;;;;;;34.78;19.65;;;103.10;2227.20;;;;;;5010412;28;20121;-60
2021/12/18 01:58:35;;;;;;;44.08;21.73;;;103.10;2227.20;;;;;;5010274;28;20573;-58
2021/12/18 02:01:05;;;;;;;42.85;18.85;;;103.00;2227.20;;;;;;5010082;28;20447;-59
2021/12/18 02:03:32;;;;;;;24.17;14.02;;;103.00;2227.20;;;;;;5009796;28;20065;-58
2021/12/18 02:05:58;;;;;;;24.40;14.02;;;102.90;2227.20;;;;;;5010474;28;20495;-59
2021/12/18 02:08:26;;;;;;;24.45;13.50;;;103.00;2227.20;;;;;;5010337;28;20033;-58
2021/12/18 02:11:22;;;;;;;19.58;13.15;;;102.90;2227.20;;;;;;5010234;28;20049;-59
2021/12/18 02:22:00;;;;;;;36.95;21.33;;;102.60;2227.20;;;;;;5010063;28;20045;-59
2021/12/18 02:24:28;;;;;;;23.45;14.18;;;102.70;2227.20;;;;;;5010551;28;20025;-59
2021/12/18 02:26:55;;;;;;;26.02;14.32;;;102.90;2227.20;;;;;;5010145;28;20030;-59
2021/12/18 02:29:21;;;;;;;105.03;69.40;;;102.80;2227.20;;;;;;5010070;28;20022;-58
2021/12/18 02:31:47;;;;;;;23.92;14.70;;;102.80;2227.20;;;;;;5010142;28;20435;-58
2021/12/18 02:34:22;;;;;;;27.75;15.43;;;102.80;2227.20;;;;;;5009292;28;20050;-59
2021/12/18 02:36:49;;;;;;;22.90;15.60;;;102.80;2227.20;;;;;;5012566;28;20038;-58
2021/12/18 02:42:17;;;;;;;24.10;14.98;;;102.60;2227.20;;;;;;5013685;28;20449;-59
2021/12/18 02:44:39;;;;;;;26.75;16.05;;;102.70;2227.20;;;;;;5012976;28;20160;-58
2021/12/18 02:47:06;;;;;;;22.60;13.85;;;102.70;2227.20;;;;;;5013653;28;20546;-59
2021/12/18 02:49:31;;;;;;;25.65;14.32;;;102.80;2227.20;;;;;;5013184;28;20018;-59
2021/12/18 02:51:57;;;;;;;22.63;14.85;;;102.80;2227.20;;;;;;5013444;28;20113;-59
2021/12/18 02:54:24;;;;;;;23.63;13.82;;;102.80;2227.20;;;;;;5013198;28;20108;-59
2021/12/18 02:56:50;;;;;;;26.75;14.43;;;102.70;2227.20;;;;;;5013113;28;20037;-58
2021/12/18 02:59:17;;;;;;;29.52;16.42;;;102.80;2227.20;;;;;;5013245;28;20022;-58
2021/12/18 03:01:43;;;;;;;20.95;14.38;;;102.80;2227.20;;;;;;5012962;28;20038;-59
2021/12/18 03:04:21;;;;;;;50.53;28.25;;;102.70;2227.20;;;;;;5013053;28;20026;-58
2021/12/18 03:06:52;;;;;;;25.90;15.50;;;102.80;2227.20;;;;;;5013164;28;20057;-58
2021/12/18 03:25:22;;;;;;;27.25;15.35;;;102.80;2227.20;;;;;;5012574;28;20034;-59
2021/12/18 03:27:48;;;;;;;26.33;16.60;;;102.90;2227.20;;;;;;5013010;28;20033;-59
2021/12/18 03:30:15;;;;;;;26.98;14.93;;;102.70;2227.20;;;;;;5012665;28;20084;-59
2021/12/18 03:32:41;;;;;;;26.98;15.40;;;102.80;2227.20;;;;;;5012427;28;20058;-58
2021/12/18 03:35:07;;;;;;;30.13;17.00;;;102.70;2227.20;;;;;;5012356;28;20104;-58
2021/12/18 03:37:35;;;;;;;24.58;16.70;;;102.70;2227.20;;;;;;5012531;28;20017;-59
2021/12/18 03:40:02;;;;;;;21.33;14.30;;;102.70;2227.20;;;;;;4994422;28;20034;-59
2021/12/18 03:42:30;;;;;;;23.08;15.50;;;102.50;2227.20;;;;;;5012718;28;20028;-58
2021/12/18 03:44:55;;;;;;;32.83;19.80;;;102.50;2227.20;;;;;;5012718;28;20022;-58
2021/12/18 03:47:21;;;;;;;29.15;15.73;;;102.70;2227.20;;;;;;5012108;28;20430;-60
2021/12/18 03:49:47;;;;;;;26.55;15.23;;;102.60;2227.20;;;;;;5012366;28;20026;-58
2021/12/18 03:52:13;;;;;;;25.42;15.25;;;77.70;2227.20;;;;;;5012052;28;20042;-58
2021/12/18 03:54:40;;;;;;;21.77;14.05;;;77.70;2227.20;;;;;;5012238;28;20034;-58
2021/12/18 03:57:06;;;;;;;29.48;20.60;;;102.40;2227.20;;;;;;5012383;28;20034;-58
2021/12/18 03:59:31;;;;;;;32.58;18.30;;;102.40;2227.20;;;;;;5012024;28;20029;-58
2021/12/18 04:01:57;;;;;;;27.67;16.48;;;102.40;2227.20;;;;;;5012267;28;20038;-58
2021/12/18 04:04:23;;;;;;;23.80;16.10;;;102.40;2227.20;;;;;;5011805;28;20085;-58
2021/12/18 04:06:49;;;;;;;22.75;13.70;;;102.60;2227.20;;;;;;5012155;28;20038;-58
2021/12/18 04:09:15;;;;;;;31.25;17.40;;;102.70;2227.20;;;;;;5011972;28;20030;-58
2021/12/18 04:11:42;;;;;;;33.85;18.45;;;102.60;2227.20;;;;;;5011958;28;20033;-58
2021/12/18 04:14:10;;;;;;;52.22;27.13;;;102.50;2227.20;;;;;;5012120;28;20037;-58
2021/12/18 04:16:36;;;;;;;25.63;14.35;;;102.60;2227.20;;;;;;5012009;28;20041;-59
2021/12/18 04:19:02;;;;;;;25.90;14.93;;;102.60;2227.20;;;;;;5011590;28;20022;-59
2021/12/18 04:21:29;;;;;;;26.25;17.10;;;102.60;2227.20;;;;;;5011704;28;20472;-59
2021/12/18 04:23:55;;;;;;;22.27;14.73;;;102.50;2227.20;;;;;;5011723;28;20097;-59
2021/12/18 04:26:20;;;;;;;26.38;14.60;;;102.70;2227.20;;;;;;5011725;28;20038;-59
2021/12/18 04:28:46;;;;;;;29.40;16.17;;;102.60;2227.20;;;;;;5011772;28;20110;-58
2021/12/18 04:31:12;;;;;;;25.00;16.08;;;102.50;2227.20;;;;;;5011466;28;20018;-59
2021/12/18 04:33:38;;;;;;;21.42;14.30;;;102.60;2227.20;;;;;;4993479;28;20056;-59
2021/12/18 04:36:05;;;;;;;29.70;18.08;;;102.60;2227.20;;;;;;5011313;28;20483;-59
2021/12/18 04:38:31;;;;;;;24.77;16.27;;;102.60;2227.20;;;;;;5011248;28;20036;-59
2021/12/18 04:40:58;;;;;;;31.88;18.75;;;102.50;2227.20;;;;;;5011469;28;20034;-59
2021/12/18 04:43:24;;;;;;;20.98;15.00;;;102.50;2227.20;;;;;;5011272;28;20468;-59
2021/12/18 04:45:50;;;;;;;23.15;14.73;;;102.50;2227.20;;;;;;5011082;28;20040;-59
2021/12/18 04:48:16;;;;;;;31.42;15.82;;;102.50;2227.20;;;;;;5011390;28;20424;-58
2021/12/18 04:50:41;;;;;;;23.88;14.10;;;102.40;2227.20;;;;;;5011042;28;20431;-59
2021/12/18 04:53:07;;;;;;;20.52;14.15;;;102.40;2227.20;;;;;;5011179;28;20105;-59
2021/12/18 04:55:34;;;;;;;24.48;15.05;;;102.50;2227.20;;;;;;5010881;28;20025;-59
2021/12/18 04:58:00;;;;;;;25.10;15.82;;;102.40;2227.20;;;;;;5010613;28;20068;-59
2021/12/18 05:00:35;;;;;;;25.17;16.33;;;102.40;2227.20;;;;;;5011270;28;20058;-59
2021/12/18 05:03:05;;;;;;;55.90;31.00;;;102.40;2227.20;;;;;;5010815;28;20044;-59
2021/12/18 05:05:31;;;;;;;32.03;20.05;;;102.60;2227.20;;;;;;5010819;28;20528;-59
2021/12/18 05:07:57;;;;;;;46.83;26.52;;;102.40;2227.20;;;;;;5011183;28;20026;-59
2021/12/18 05:10:23;;;;;;;22.83;14.25;;;102.40;2227.20;;;;;;5010803;28;20116;-59
2021/12/18 05:12:48;;;;;;;26.58;18.42;;;102.40;2227.20;;;;;;4993515;28;20084;-58
2021/12/18 05:15:14;;;;;;;20.95;15.00;;;102.40;2227.20;;;;;;5011223;28;20108;-58
2021/12/18 05:17:40;;;;;;;24.77;15.25;;;102.50;2227.20;;;;;;5010902;28;20038;-59
2021/12/18 05:20:07;;;;;;;23.83;14.13;;;102.50;2227.20;;;;;;5010764;28;20029;-60
2021/12/18 05:22:33;;;;;;;22.92;14.63;;;102.50;2227.20;;;;;;5010557;28;20026;-60
2021/12/18 05:24:59;;;;;;;23.75;15.55;;;102.60;2227.20;;;;;;5010684;28;20087;-60
2021/12/18 05:27:25;;;;;;;22.65;14.13;;;102.50;2227.20;;;;;;5010817;28;20104;-61
2021/12/18 05:29:50;;;;;;;22.92;15.70;;;102.50;2227.20;;;;;;5010408;28;20018;-60
2021/12/18 05:32:16;;;;;;;24.92;14.18;;;102.50;2227.20;;;;;;5010637;28;20036;-60
2021/12/18 05:34:42;;;;;;;23.75;14.23;;;102.50;2227.20;;;;;;5010300;28;20057;-59
2021/12/18 05:39:39;;;;;;;29.73;15.55;;;102.50;2227.20;;;;;;5010340;28;20116;-59
2021/12/18 05:42:05;;;;;;;28.23;17.90;;;102.60;2227.20;;;;;;5010517;28;20485;-59
2021/12/18 05:44:31;;;;;;;24.15;13.60;;;102.60;2227.20;;;;;;5010410;28;20029;-59
2021/12/18 05:46:57;;;;;;;22.88;14.13;;;102.50;2227.20;;;;;;5010642;28;20057;-59
2021/12/18 05:49:22;;;;;;;23.55;14.38;;;102.50;2227.20;;;;;;5010220;28;20080;-59
2021/12/18 05:51:49;;;;;;;29.27;15.40;;;102.50;2227.20;;;;;;5010464;28;20036;-59
2021/12/18 05:54:15;;;;;;;23.02;14.38;;;102.50;2227.20;;;;;;5010199;28;20025;-59
2021/12/18 05:56:41;;;;;;;24.17;12.23;;;102.70;2227.20;;;;;;5010202;28;20060;-59
2021/12/18 05:59:08;;;;;;;24.15;13.13;;;102.60;2227.20;;;;;;5010575;28;20034;-59
2021/12/18 06:01:34;;;;;;;22.63;12.85;;;102.60;2227.20;;;;;;5010073;28;20527;-59
2021/12/18 06:03:59;;;;;;;21.60;14.18;;;102.60;2227.20;;;;;;5009977;28;20041;-59
2021/12/18 06:06:25;;;;;;;20.67;13.30;;;102.50;2227.20;;;;;;4992537;28;20037;-59
2021/12/18 06:08:51;;;;;;;21.98;11.65;;;102.50;2227.20;;;;;;5009974;28;20029;-60
2021/12/18 06:11:20;;;;;;;21.13;13.15;;;102.50;2227.20;;;;;;5012219;28;20041;-59
2021/12/18 06:13:52;;;;;;;23.42;12.98;;;102.50;2227.20;;;;;;5014233;28;20024;-59
2021/12/18 06:16:19;;;;;;;23.50;12.02;;;102.50;2227.20;;;;;;5014080;28;20033;-58
2021/12/18 06:18:49;;;;;;;19.23;11.07;;;102.50;2227.20;;;;;;5014152;28;20057;-58
2021/12/18 06:21:16;;;;;;;22.00;11.43;;;102.60;2227.20;;;;;;5014120;28;20041;-59
2021/12/18 06:23:43;;;;;;;18.90;12.30;;;102.50;2227.20;;;;;;5013744;28;20033;-59
2021/12/18 06:26:09;;;;;;;23.83;12.63;;;102.50;2227.20;;;;;;5014240;28;20095;-58
2021/12/18 06:28:35;;;;;;;21.20;11.57;;;102.50;2227.20;;;;;;5014097;28;20026;-58
2021/12/18 06:31:01;;;;;;;19.73;11.93;;;102.40;2227.20;;;;;;5013647;28;20125;-59
2021/12/18 06:33:29;;;;;;;24.27;14.77;;;102.50;2227.20;;;;;;5013574;28;20137;-59
2021/12/18 06:35:56;;;;;;;22.58;13.52;;;102.40;2227.20;;;;;;5013824;28;20076;-59
2021/12/18 06:38:22;;;;;;;23.88;13.73;;;77.70;2227.20;;;;;;5013572;28;20029;-59
2021/12/18 06:40:48;;;;;;;22.00;12.70;;;77.70;2227.20;;;;;;5013656;28;20396;-59
2021/12/18 06:43:14;;;;;;;32.08;17.15;;;102.60;2227.20;;;;;;5013402;28;20030;-59
2021/12/18 06:45:40;;;;;;;20.92;12.82;;;102.50;2227.20;;;;;;5013409;28;20045;-59
2021/12/18 06:48:06;;;;;;;22.92;13.88;;;102.60;2227.20;;;;;;5013543;28;20029;-59
2021/12/18 06:50:33;;;;;;;21.88;14.20;;;102.60;2227.20;;;;;;5013250;28;20070;-59
2021/12/18 06:52:59;;;;;;;36.35;19.33;;;102.60;2227.20;;;;;;5013350;28;20034;-65
2021/12/18 06:55:25;;;;;;;20.15;13.00;;;102.70;2227.20;;;;;;4995479;28;20038;-73
2021/12/18 06:57:51;;;;;;;20.90;12.70;;;102.90;2227.20;;;;;;4995339;28;20038;-70
2021/12/18 07:00:20;;;;;;;24.45;14.35;;;102.90;2227.20;;;;;;5013296;28;20077;-74
2021/12/18 07:02:45;;;;;;;20.83;13.73;;;102.90;2227.20;;;;;;5013362;28;20030;-73
2021/12/18 07:05:11;;;;;;;26.33;13.90;;;103.00;2227.20;;;;;;5013049;28;20045;-71
2021/12/18 07:07:38;;;;;;;23.58;14.85;;;102.90;2227.20;;;;;;5013525;28;20034;-72
2021/12/18 07:10:06;;;;;;;21.88;11.45;;;102.90;2227.20;;;;;;5022948;28;20064;-72
2021/12/18 07:12:32;;;;;;;22.65;13.13;;;102.90;2227.20;;;;;;5012924;28;20026;-72
2021/12/18 07:14:58;;;;;;;21.40;13.00;;;102.80;2227.20;;;;;;5013117;28;20041;-72
2021/12/18 07:17:24;;;;;;;26.20;12.88;;;102.80;2227.20;;;;;;5013095;28;20030;-74
2021/12/18 07:19:50;;;;;;;19.70;12.05;;;102.90;2227.20;;;;;;5012641;28;20109;-72
2021/12/18 07:22:15;;;;;;;23.10;12.82;;;102.80;2227.20;;;;;;5012563;28;20112;-73
2021/12/18 07:24:41;;;;;;;20.52;11.93;;;103.00;2227.20;;;;;;5012579;28;20447;-77
2021/12/18 07:27:07;;;;;;;16.98;10.55;;;103.10;2227.20;;;;;;5012933;28;20160;-71
2021/12/18 07:29:33;;;;;;;151.23;90.15;;;103.00;2227.20;;;;;;5012780;28;20532;-71
2021/12/18 07:31:59;;;;;;;26.92;16.73;;;103.00;2227.20;;;;;;5012876;28;20053;-73
2021/12/18 07:34:25;;;;;;;20.25;12.50;;;103.00;2227.20;;;;;;5012544;28;20488;-75
2021/12/18 07:36:50;;;;;;;21.67;12.70;;;103.00;2227.20;;;;;;5027658;28;20033;-74
2021/12/18 07:39:17;;;;;;;40.47;25.48;;;102.90;2227.20;;;;;;5032379;28;20590;-73
2021/12/18 07:41:42;;;;;;;33.83;21.30;;;103.00;2227.20;;;;;;5014725;28;20135;-72
2021/12/18 07:44:08;;;;;;;32.97;22.95;;;102.90;2227.20;;;;;;5012408;28;20053;-74
2021/12/18 07:46:36;;;;;;;25.52;14.82;;;102.90;2227.20;;;;;;5012474;28;20113;-75
2021/12/18 07:49:03;;;;;;;23.67;13.20;;;102.80;2227.20;;;;;;4978478;28;20033;-68
2021/12/18 07:51:29;;;;;;;51.33;28.10;;;102.80;2227.20;;;;;;5012547;28;20112;-76
2021/12/18 07:53:56;;;;;;;29.55;17.77;;;102.80;2227.20;;;;;;5026021;28;20087;-70
2021/12/18 07:56:21;;;;;;;30.67;21.08;;;102.90;2227.20;;;;;;5032036;28;20380;-73
2021/12/18 07:58:47;;;;;;;66.95;43.10;;;102.80;2227.20;;;;;;5032041;28;20029;-75
2021/12/18 08:01:13;;;;;;;19.90;12.70;;;102.80;2227.20;;;;;;5018866;28;20044;-72
2021/12/18 08:03:40;;;;;;;25.95;13.68;;;102.80;2227.20;;;;;;5031799;28;20088;-72
2021/12/18 08:06:06;;;;;;;30.65;23.58;;;102.90;2227.20;;;;;;5031913;28;20048;-75
2021/12/18 08:08:32;;;;;;;19.60;12.07;;;102.90;2227.20;;;;;;5031642;28;20022;-59
2021/12/18 08:10:58;;;;;;;24.35;12.68;;;103.10;2227.20;;;;;;5032143;28;20034;-60
2021/12/18 08:13:24;;;;;;;24.50;18.85;;;103.10;2227.20;;;;;;5032078;28;20025;-63
2021/12/18 08:15:50;;;;;;;15.32;12.50;;;103.10;2227.20;;;;;;5031564;28;20517;-61
2021/12/18 08:18:16;;;;;;;25.55;14.13;;;103.10;2227.20;;;;;;5021234;28;20022;-62
2021/12/18 08:20:42;;;;;;;20.70;12.52;;;103.30;2227.20;;;;;;5011445;28;20030;-60
2021/12/18 08:23:07;;;;;;;18.08;12.30;;;103.20;2227.20;;;;;;5011810;28;20493;-59
2021/12/18 08:25:34;;;;;;;16.08;12.85;;;103.30;2227.20;;;;;;5011596;28;20021;-60
2021/12/18 08:28:00;;;;;;;20.25;11.93;;;128.00;2252.80;;;;;;5011499;28;20121;-62
2021/12/18 08:30:31;;;;;;;18.63;12.07;;;128.00;2252.80;;;;;;5011699;28;20030;-66
2021/12/18 08:33:00;;;;;;;23.73;12.95;;;103.30;2227.20;;;;;;5010948;28;20026;-67
2021/12/18 08:35:28;;;;;;;22.15;14.75;;;103.30;2227.20;;;;;;5011713;28;20045;-67
2021/12/18 08:37:55;;;;;;;21.95;12.93;;;103.30;2227.20;;;;;;5011273;28;20116;-67
2021/12/18 08:40:22;;;;;;;29.10;22.33;;;103.20;2227.20;;;;;;5011385;28;20038;-67
2021/12/18 08:42:48;;;;;;;24.55;16.58;;;103.20;2227.20;;;;;;5011575;28;20080;-67
2021/12/18 08:45:15;;;;;;;21.55;13.23;;;103.20;2227.20;;;;;;5009547;28;20037;-67
2021/12/18 08:47:41;;;;;;;23.58;15.48;;;103.10;2227.20;;;;;;5011174;28;20511;-67
2021/12/18 08:50:10;;;;;;;26.27;18.60;;;103.20;2227.20;;;;;;5011291;28;20049;-66
2021/12/18 08:52:36;;;;;;;14.75;10.60;;;103.10;2227.20;;;;;;5011366;28;20480;-67
2021/12/18 08:55:03;;;;;;;23.35;15.23;;;103.20;2227.20;;;;;;5011011;28;20026;-67
2021/12/18 08:57:29;;;;;;;17.88;13.00;;;103.20;2227.20;;;;;;5010984;28;20030;-66
2021/12/18 08:59:55;;;;;;;20.20;12.65;;;103.20;2227.20;;;;;;5011348;28;20527;-66
2021/12/18 09:02:21;;;;;;;19.02;12.00;;;103.10;2227.20;;;;;;5010775;28;20489;-67
2021/12/18 09:04:48;;;;;;;17.15;12.85;;;103.10;2227.20;;;;;;5011158;28;20041;-67
2021/12/18 09:07:14;;;;;;;21.00;12.65;;;103.20;2227.20;;;;;;5010994;28;20408;-68
2021/12/18 09:09:40;;;;;;;18.17;10.85;;;103.30;2227.20;;;;;;5010698;28;20056;-67
2021/12/18 09:12:08;;;;;;;22.88;13.73;;;103.20;2227.20;;;;;;5011013;28;20105;-67
2021/12/18 09:14:34;;;;;;;22.23;13.95;;;103.30;2227.20;;;;;;5010587;28;20030;-67
2021/12/18 09:17:00;;;;;;;43.17;33.10;;;128.10;2252.80;;;;;;5010648;28;20036;-67
2021/12/18 09:19:25;;;;;;;22.13;15.90;;;128.20;2252.80;;;;;;5010917;28;20034;-67
2021/12/18 09:21:51;;;;;;;24.90;17.27;;;128.30;2252.80;;;;;;5010417;28;20061;-67
2021/12/18 09:24:17;;;;;;;31.90;24.77;;;128.40;2252.80;;;;;;5010668;28;20060;-67
2021/12/18 09:26:42;;;;;;;19.40;13.15;;;128.70;2252.80;;;;;;5010720;28;20532;-68
2021/12/18 09:29:08;;;;;;;16.10;9.68;;;128.90;2252.80;;;;;;5010804;28;20538;-66
2021/12/18 09:31:34;;;;;;;16.85;10.95;;;153.80;2252.80;;;;;;5010663;28;20425;-68
2021/12/18 09:34:01;;;;;;;16.55;11.18;;;154.30;2252.80;;;;;;5010133;28;20056;-68
2021/12/18 09:36:27;;;;;;;18.90;12.60;;;179.30;2252.80;;;;;;5010676;28;20034;-67
2021/12/18 09:38:53;;;;;;;20.35;11.18;;;179.60;2252.80;;;;;;5010309;28;20030;-67
2021/12/18 09:41:18;;;;;;;14.98;10.52;;;179.60;2252.80;;;;;;5010741;28;20042;-67
2021/12/18 09:43:44;;;;;;;14.85;10.13;;;179.30;2252.80;;;;;;5010647;28;20468;-67
2021/12/18 09:46:13;;;;;;;22.92;15.45;;;179.50;2252.80;;;;;;5010185;28;20080;-67
2021/12/18 09:48:40;;;;;;;21.00;11.38;;;179.50;2252.80;;;;;;5010432;28;20022;-67
2021/12/18 09:51:11;;;;;;;15.70;10.68;;;179.80;2252.80;;;;;;5010312;28;20113;-67
2021/12/18 09:53:40;;;;;;;13.48;9.48;;;179.70;2252.80;;;;;;5010313;28;20026;-67
2021/12/18 09:56:06;;;;;;;15.45;9.73;;;179.70;2252.80;;;;;;5010536;28;20030;-67
2021/12/18 09:58:32;;;;;;;14.77;11.65;;;180.10;2252.80;;;;;;5010341;28;20033;-66
2021/12/18 10:00:59;;;;;;;17.42;11.27;;;204.90;2252.80;;;;;;5010389;28;20034;-68
2021/12/18 10:03:51;;;;;;;15.02;9.38;;;205.10;2252.80;;;;;;5010238;28;20041;-67
2021/12/18 10:06:40;;;;;;;14.43;8.73;;;205.10;2252.80;;;;;;5009908;28;20038;-67
2021/12/18 10:09:09;;;;;;;13.63;10.27;;;205.10;2252.80;;;;;;5010014;28;20054;-67
2021/12/18 10:11:45;;;;;;;19.70;10.82;;;204.90;2252.80;;;;;;5010162;28;20380;-68
2021/12/18 10:14:11;;;;;;;14.00;9.70;;;180.10;2252.80;;;;;;5009932;28;20022;-68
2021/12/18 10:16:51;;;;;;;15.88;12.10;;;179.90;2252.80;;;;;;5010119;28;20037;-68
2021/12/18 10:19:29;;;;;;;13.70;8.45;;;179.70;2252.80;;;;;;5010352;28;20022;-67
2021/12/18 10:21:57;;;;;;;19.88;10.35;;;179.50;2252.80;;;;;;5010226;28;20034;-67
2021/12/18 10:24:24;;;;;;;14.27;10.77;;;179.50;2252.80;;;;;;5010056;28;20026;-67
2021/12/18 10:26:50;;;;;;;18.35;10.75;;;179.40;2252.80;;;;;;5009825;28;20053;-68
2021/12/18 10:29:35;;;;;;;15.57;10.02;;;179.30;2252.80;;;;;;5010023;28;20087;-67
2021/12/18 10:32:16;;;;;;;15.30;9.32;;;154.30;2252.80;;;;;;5009846;28;20105;-68
2021/12/18 10:34:49;;;;;;;15.20;9.75;;;154.10;2252.80;;;;;;5009668;28;20060;-68
2021/12/18 10:37:17;;;;;;;16.48;10.55;;;154.10;2252.80;;;;;;5009876;28;20036;-67
2021/12/18 10:39:50;;;;;;;15.80;10.18;;;154.00;2252.80;;;;;;5009784;28;20054;-68
2021/12/18 10:42:19;;;;;;;12.38;8.15;;;154.00;2252.80;;;;;;5009998;28;20098;-67
2021/12/18 10:45:06;;;;;;;21.08;12.93;;;153.90;2252.80;;;;;;5010005;28;20044;-67
2021/12/18 10:47:55;;;;;;;22.15;14.65;;;153.80;2252.80;;;;;;4992083;28;20038;-68
2021/12/18 10:50:35;;;;;;;22.67;13.43;;;154.00;2252.80;;;;;;5009592;28;20349;-68
2021/12/18 10:53:19;;;;;;;21.23;13.13;;;154.00;2252.80;;;;;;5009727;28;20365;-68
2021/12/18 10:55:49;;;;;;;16.80;10.65;;;154.00;2252.80;;;;;;5010602;28;20507;-67
2021/12/18 10:58:25;;;;;;;18.45;12.50;;;154.20;2252.80;;;;;;5014180;28;20424;-68
2021/12/18 11:01:12;;;;;;;18.45;11.70;;;154.30;2252.80;;;;;;5014119;28;20053;-68
2021/12/18 11:03:49;;;;;;;20.90;17.20;;;154.20;2252.80;;;;;;5013246;28;20014;-66
2021/12/18 11:06:29;;;;;;;18.13;12.85;;;154.00;2252.80;;;;;;5013154;28;20030;-67
2021/12/18 11:09:07;;;;;;;18.60;13.60;;;154.00;2252.80;;;;;;5013382;28;20026;-67
2021/12/18 11:14:17;;;;;;;16.52;10.40;;;154.30;2252.80;;;;;;5032916;28;20558;-67
2021/12/18 11:16:47;;;;;;;15.30;9.73;;;154.30;2252.80;;;;;;5032680;28;20026;-67
2021/12/18 11:19:16;;;;;;;16.00;9.98;;;154.00;2252.80;;;;;;5032560;28;20041;-67
2021/12/18 11:21:45;;;;;;;15.07;10.25;;;153.90;2252.80;;;;;;5032354;28;20061;-67
2021/12/18 11:24:12;;;;;;;19.25;10.32;;;153.80;2252.80;;;;;;5032450;28;20037;-67
2021/12/18 11:26:44;;;;;;;14.68;9.68;;;153.80;2252.80;;;;;;5032720;28;20021;-67
2021/12/18 11:29:19;;;;;;;15.82;10.20;;;153.90;2252.80;;;;;;5032486;28;20506;-67
2021/12/18 11:31:46;;;;;;;20.35;11.57;;;153.80;2252.80;;;;;;5032688;28;20032;-67
2021/12/18 11:34:12;;;;;;;17.17;10.32;;;153.70;2252.80;;;;;;5032119;28;20052;-68
2021/12/18 11:36:41;;;;;;;13.68;10.05;;;153.70;2252.80;;;;;;5032477;28;20029;-65
2021/12/18 11:39:10;;;;;;;16.70;10.10;;;153.80;2252.80;;;;;;5032353;28;20388;-67
2021/12/18 11:41:38;;;;;;;27.05;12.23;;;153.70;2252.80;;;;;;5032381;28;20392;-66
2021/12/18 11:44:27;;;;;;;13.85;9.55;;;128.90;2252.80;;;;;;5032081;28;20021;-66
2021/12/18 11:46:53;;;;;;;14.57;9.23;;;128.90;2252.80;;;;;;5032135;28;20022;-67
2021/12/18 11:49:21;;;;;;;14.02;9.48;;;128.80;2252.80;;;;;;5032198;28;20472;-67
2021/12/18 11:52:05;;;;;;;13.65;9.02;;;128.80;2252.80;;;;;;5032367;28;20022;-67
2021/12/18 11:54:49;;;;;;;;;;;128.90;2252.80;;;;;;5032481;28;20022;-68
2021/12/18 11:57:40;;;;;;;17.67;10.63;;;128.80;2252.80;;;;;;5028852;28;20012;-67
2021/12/18 12:00:33;;;;;;;17.25;9.15;;;128.90;2252.80;;;;;;4967807;28;20043;-67
2021/12/18 12:03:00;;;;;;;16.67;11.13;;;153.60;2252.80;;;;;;4954603;28;20035;-67
2021/12/18 12:05:45;;;;;;;20.42;12.18;;;128.80;2252.80;;;;;;4959267;28;20059;-66
2021/12/18 12:08:40;;;;;;;24.35;16.58;;;128.90;2252.80;;;;;;4950445;28;20043;-67
2021/12/18 12:11:25;;;;;;;23.95;15.10;;;128.90;2252.80;;;;;;4951722;29;20118;-68
2021/12/18 12:13:58;;;;;;;15.93;8.95;;;128.70;2252.80;;;;;;4951340;28;20519;-66
2021/12/18 12:16:42;;;;;;;15.02;9.73;;;128.80;2252.80;;;;;;4960352;28;20429;-66
2021/12/18 12:19:10;;;;;;;21.98;12.15;;;128.90;2252.80;;;;;;4969903;28;20030;-66
2021/12/18 12:21:39;;;;;;;13.82;11.35;;;128.80;2252.80;;;;;;4969264;28;20066;-66
2021/12/18 12:24:06;;;;;;;15.23;9.43;;;128.80;2252.80;;;;;;4968625;28;20031;-66
2021/12/18 12:26:32;;;;;;;19.52;12.43;;;128.80;2252.80;;;;;;4959252;28;20023;-67
2021/12/18 12:28:58;;;;;;;19.13;10.10;;;128.90;2252.80;;;;;;4955586;28;20067;-66
2021/12/18 12:31:24;;;;;;;14.85;10.70;;;153.60;2252.80;;;;;;4951064;29;20035;-66
2021/12/18 12:33:50;;;;;;;17.45;9.45;;;128.80;2252.80;;;;;;4951050;29;20608;-65
2021/12/18 12:36:24;;;;;;;14.27;10.07;;;128.70;2252.80;;;;;;4965435;28;20034;-65
2021/12/18 12:38:59;;;;;;;17.80;10.38;;;128.80;2252.80;;;;;;5019507;28;20030;-68
2021/12/18 12:41:53;;;;;;;13.98;10.10;;;128.70;2252.80;;;;;;5019340;28;20124;-67
2021/12/18 12:44:35;;;;;;;17.20;10.15;;;128.70;2252.80;;;;;;5020807;28;20028;-66
2021/12/18 12:47:20;;;;;;;17.02;10.90;;;128.70;2252.80;;;;;;5020674;28;20543;-67
2021/12/18 12:49:49;;;;;;;16.08;10.73;;;128.90;2252.80;;;;;;5021083;28;20040;-65
2021/12/18 12:52:19;;;;;;;18.33;11.75;;;128.80;2252.80;;;;;;5019950;28;20460;-65
2021/12/18 12:54:57;;;;;;;16.27;9.82;;;128.80;2252.80;;;;;;5018552;28;20105;-65
2021/12/18 12:57:23;;;;;;;23.95;13.25;;;128.80;2252.80;;;;;;5018558;28;20080;-65
2021/12/18 13:00:18;;;;;;;17.25;10.55;;;128.80;2252.80;;;;;;5020622;28;20026;-65
2021/12/18 13:02:58;;;;;;;17.05;11.85;;;128.80;2252.80;;;;;;4983844;28;20406;-65